sensor_id;sensor_type;location;lat;lon;timestamp;temperature;humidity
38514;DHT22;24282;48.400;10.808;2024-01-15T00:01:50;-3275.50;80.30
38514;DHT22;24282;48.400;10.808;2024-01-15T00:04:16;-3275.40;80.20
38514;DHT22;24282;48.400;10.808;2024-01-15T00:06:42;-3275.50;79.90
38514;DHT22;24282;48.400;10.808;2024-01-15T00:09:07;-3275.40;79.90
38514;DHT22;24282;48.400;10.808;2024-01-15T00:11:33;-3275.40;80.20
38514;DHT22;24282;48.400;10.808;2024-01-15T00:13:59;-3275.40;80.10
38514;DHT22;24282;48.400;10.808;2024-01-15T00:16:25;-3275.40;80.30
38514;DHT22;24282;48.400;10.808;2024-01-15T00:18:50;-3275.40;80.30
38514;DHT22;24282;48.400;10.808;2024-01-15T00:21:16;-3275.40;80.00
38514;DHT22;24282;48.400;10.808;2024-01-15T00:23:45;-3275.40;79.60
38514;DHT22;24282;48.400;10.808;2024-01-15T00:26:11;-3275.30;79.70
38514;DHT22;24282;48.400;10.808;2024-01-15T00:28:37;-3275.30;79.90
38514;DHT22;24282;48.400;10.808;2024-01-15T00:31:06;-3275.30;80.00
38514;DHT22;24282;48.400;10.808;2024-01-15T00:33:32;-3275.30;79.70
38514;DHT22;24282;48.400;10.808;2024-01-15T00:35:58;-3275.40;79.20
38514;DHT22;24282;48.400;10.808;2024-01-15T00:38:24;-3275.40;79.40
38514;DHT22;24282;48.400;10.808;2024-01-15T00:40:50;-3275.40;79.40
38514;DHT22;24282;48.400;10.808;2024-01-15T00:43:15;-3275.40;79.30
38514;DHT22;24282;48.400;10.808;2024-01-15T00:45:43;-3275.40;79.00
38514;DHT22;24282;48.400;10.808;2024-01-15T00:48:09;-3275.30;79.20
38514;DHT22;24282;48.400;10.808;2024-01-15T00:50:35;-3275.40;79.10
38514;DHT22;24282;48.400;10.808;2024-01-15T00:53:01;-3275.20;79.30
38514;DHT22;24282;48.400;10.808;2024-01-15T00:55:28;-3275.20;79.40
38514;DHT22;24282;48.400;10.808;2024-01-15T00:57:54;-3275.20;79.70
38514;DHT22;24282;48.400;10.808;2024-01-15T01:00:20;-3275.20;79.60
38514;DHT22;24282;48.400;10.808;2024-01-15T01:02:46;-3275.20;79.50
38514;DHT22;24282;48.400;10.808;2024-01-15T01:05:11;-3275.40;78.80
38514;DHT22;24282;48.400;10.808;2024-01-15T01:07:37;-3275.40;78.50
38514;DHT22;24282;48.400;10.808;2024-01-15T01:10:03;-3275.40;78.40
38514;DHT22;24282;48.400;10.808;2024-01-15T01:12:29;-3275.40;78.00
38514;DHT22;24282;48.400;10.808;2024-01-15T01:14:56;-3275.30;78.40
38514;DHT22;24282;48.400;10.808;2024-01-15T01:17:22;-3275.30;78.10
38514;DHT22;24282;48.400;10.808;2024-01-15T01:19:48;-3275.30;78.10
38514;DHT22;24282;48.400;10.808;2024-01-15T01:22:14;-3275.30;78.00
38514;DHT22;24282;48.400;10.808;2024-01-15T01:24:40;-3275.20;78.20
38514;DHT22;24282;48.400;10.808;2024-01-15T01:27:06;-3275.20;78.50
38514;DHT22;24282;48.400;10.808;2024-01-15T01:29:31;-3275.30;77.80
38514;DHT22;24282;48.400;10.808;2024-01-15T01:31:57;-3275.20;77.90
38514;DHT22;24282;48.400;10.808;2024-01-15T01:34:23;-3275.20;78.20
38514;DHT22;24282;48.400;10.808;2024-01-15T01:36:48;-3275.20;78.00
38514;DHT22;24282;48.400;10.808;2024-01-15T01:39:14;-3275.10;78.10
38514;DHT22;24282;48.400;10.808;2024-01-15T01:41:40;-3275.10;78.20
38514;DHT22;24282;48.400;10.808;2024-01-15T01:44:06;-3275.10;78.40
38514;DHT22;24282;48.400;10.808;2024-01-15T01:46:33;-3275.20;78.10
38514;DHT22;24282;48.400;10.808;2024-01-15T01:48:59;-3275.20;78.10
38514;DHT22;24282;48.400;10.808;2024-01-15T01:51:30;-3275.20;77.90
38514;DHT22;24282;48.400;10.808;2024-01-15T01:53:56;-3275.30;77.40
38514;DHT22;24282;48.400;10.808;2024-01-15T01:56:22;-3275.40;76.80
38514;DHT22;24282;48.400;10.808;2024-01-15T01:58:48;-3275.40;77.10
38514;DHT22;24282;48.400;10.808;2024-01-15T02:01:15;-3275.40;76.70
38514;DHT22;24282;48.400;10.808;2024-01-15T02:03:41;-3275.40;76.70
38514;DHT22;24282;48.400;10.808;2024-01-15T02:06:07;-3275.40;76.80
38514;DHT22;24282;48.400;10.808;2024-01-15T02:08:34;-3275.50;76.60
38514;DHT22;24282;48.400;10.808;2024-01-15T02:11:00;-3275.40;76.80
38514;DHT22;24282;48.400;10.808;2024-01-15T02:13:26;-3275.40;77.00
38514;DHT22;24282;48.400;10.808;2024-01-15T02:15:52;-3275.50;76.60
38514;DHT22;24282;48.400;10.808;2024-01-15T02:18:17;-3275.50;76.40
38514;DHT22;24282;48.400;10.808;2024-01-15T02:20:43;-3275.40;76.60
38514;DHT22;24282;48.400;10.808;2024-01-15T02:25:44;-3275.40;76.70
38514;DHT22;24282;48.400;10.808;2024-01-15T02:28:11;-3275.40;76.70
38514;DHT22;24282;48.400;10.808;2024-01-15T02:30:38;-3275.40;76.60
38514;DHT22;24282;48.400;10.808;2024-01-15T02:33:05;-3275.50;76.40
38514;DHT22;24282;48.400;10.808;2024-01-15T02:35:31;-3275.40;76.50
38514;DHT22;24282;48.400;10.808;2024-01-15T02:37:57;-3275.40;76.90
38514;DHT22;24282;48.400;10.808;2024-01-15T02:40:22;-3275.40;76.90
38514;DHT22;24282;48.400;10.808;2024-01-15T02:42:48;-3275.40;76.90
38514;DHT22;24282;48.400;10.808;2024-01-15T02:45:14;-3275.50;76.70
38514;DHT22;24282;48.400;10.808;2024-01-15T02:47:40;-3275.40;76.90
38514;DHT22;24282;48.400;10.808;2024-01-15T02:50:06;-3275.40;77.20
38514;DHT22;24282;48.400;10.808;2024-01-15T02:52:32;-3275.50;77.00
38514;DHT22;24282;48.400;10.808;2024-01-15T02:54:57;-3275.40;77.00
38514;DHT22;24282;48.400;10.808;2024-01-15T02:57:23;-3275.40;76.90
38514;DHT22;24282;48.400;10.808;2024-01-15T02:59:49;-3275.40;77.10
38514;DHT22;24282;48.400;10.808;2024-01-15T03:02:14;-3275.50;76.80
38514;DHT22;24282;48.400;10.808;2024-01-15T03:04:46;-3275.40;77.00
38514;DHT22;24282;48.400;10.808;2024-01-15T03:07:12;-3275.40;77.10
38514;DHT22;24282;48.400;10.808;2024-01-15T03:09:38;-3275.40;77.10
38514;DHT22;24282;48.400;10.808;2024-01-15T03:12:04;-3275.50;76.60
38514;DHT22;24282;48.400;10.808;2024-01-15T03:14:30;-3275.40;76.70
38514;DHT22;24282;48.400;10.808;2024-01-15T03:16:56;-3275.40;76.80
38514;DHT22;24282;48.400;10.808;2024-01-15T03:19:21;-3275.40;77.00
38514;DHT22;24282;48.400;10.808;2024-01-15T03:21:47;-3275.30;77.10
38514;DHT22;24282;48.400;10.808;2024-01-15T03:24:13;-3275.30;77.50
38514;DHT22;24282;48.400;10.808;2024-01-15T03:26:39;-3275.30;77.10
38514;DHT22;24282;48.400;10.808;2024-01-15T03:29:05;-3275.30;77.30
38514;DHT22;24282;48.400;10.808;2024-01-15T03:31:30;-3275.30;77.00
38514;DHT22;24282;48.400;10.808;2024-01-15T03:33:56;-3275.40;77.00
38514;DHT22;24282;48.400;10.808;2024-01-15T03:36:22;-3275.30;77.00
38514;DHT22;24282;48.400;10.808;2024-01-15T03:38:47;-3275.30;77.40
38514;DHT22;24282;48.400;10.808;2024-01-15T03:41:13;-3275.30;77.30
38514;DHT22;24282;48.400;10.808;2024-01-15T03:43:39;-3275.30;77.00
38514;DHT22;24282;48.400;10.808;2024-01-15T03:46:05;-3275.30;77.00
38514;DHT22;24282;48.400;10.808;2024-01-15T03:48:31;-3275.20;77.00
38514;DHT22;24282;48.400;10.808;2024-01-15T03:50:57;-3275.20;77.20
38514;DHT22;24282;48.400;10.808;2024-01-15T03:53:22;-3275.30;76.80
38514;DHT22;24282;48.400;10.808;2024-01-15T03:55:49;-3275.20;77.10
38514;DHT22;24282;48.400;10.808;2024-01-15T03:58:15;-3275.30;76.60
38514;DHT22;24282;48.400;10.808;2024-01-15T04:00:42;-3275.30;76.70
38514;DHT22;24282;48.400;10.808;2024-01-15T04:03:08;-3275.30;76.60
38514;DHT22;24282;48.400;10.808;2024-01-15T04:05:34;-3275.30;76.90
38514;DHT22;24282;48.400;10.808;2024-01-15T04:07:59;-3275.30;76.60
38514;DHT22;24282;48.400;10.808;2024-01-15T04:10:25;-3275.30;76.70
38514;DHT22;24282;48.400;10.808;2024-01-15T04:12:51;-3275.30;76.50
38514;DHT22;24282;48.400;10.808;2024-01-15T04:15:17;-3275.30;76.80
38514;DHT22;24282;48.400;10.808;2024-01-15T04:17:42;-3275.30;76.90
38514;DHT22;24282;48.400;10.808;2024-01-15T04:20:08;-3275.40;76.30
38514;DHT22;24282;48.400;10.808;2024-01-15T04:22:35;-3275.40;76.30
38514;DHT22;24282;48.400;10.808;2024-01-15T04:25:01;-3275.40;76.40
38514;DHT22;24282;48.400;10.808;2024-01-15T04:27:27;-3275.40;76.40
38514;DHT22;24282;48.400;10.808;2024-01-15T04:29:53;-3275.30;76.70
38514;DHT22;24282;48.400;10.808;2024-01-15T04:32:19;-3275.30;76.80
38514;DHT22;24282;48.400;10.808;2024-01-15T04:34:45;-3275.40;76.50
38514;DHT22;24282;48.400;10.808;2024-01-15T04:37:11;-3275.40;76.30
38514;DHT22;24282;48.400;10.808;2024-01-15T04:39:36;-3275.40;76.60
38514;DHT22;24282;48.400;10.808;2024-01-15T04:42:02;-3275.50;76.40
38514;DHT22;24282;48.400;10.808;2024-01-15T04:44:29;-3275.40;76.50
38514;DHT22;24282;48.400;10.808;2024-01-15T04:46:54;-3275.50;76.70
38514;DHT22;24282;48.400;10.808;2024-01-15T04:49:20;-3275.50;76.50
38514;DHT22;24282;48.400;10.808;2024-01-15T04:51:46;-3275.50;76.60
38514;DHT22;24282;48.400;10.808;2024-01-15T04:54:12;-3275.60;76.10
38514;DHT22;24282;48.400;10.808;2024-01-15T04:56:37;-3275.70;75.80
38514;DHT22;24282;48.400;10.808;2024-01-15T04:59:03;-3275.60;75.90
38514;DHT22;24282;48.400;10.808;2024-01-15T05:01:32;-3275.70;75.70
38514;DHT22;24282;48.400;10.808;2024-01-15T05:03:59;-3275.60;76.00
38514;DHT22;24282;48.400;10.808;2024-01-15T05:06:25;-3275.60;76.10
38514;DHT22;24282;48.400;10.808;2024-01-15T05:08:50;-3275.70;75.60
38514;DHT22;24282;48.400;10.808;2024-01-15T05:11:16;-3275.70;75.60
38514;DHT22;24282;48.400;10.808;2024-01-15T05:13:42;-3275.70;75.30
38514;DHT22;24282;48.400;10.808;2024-01-15T05:16:07;-3275.80;75.10
38514;DHT22;24282;48.400;10.808;2024-01-15T05:18:33;-3275.80;74.80
38514;DHT22;24282;48.400;10.808;2024-01-15T05:20:59;-3275.70;75.30
38514;DHT22;24282;48.400;10.808;2024-01-15T05:23:24;-3275.70;75.50
38514;DHT22;24282;48.400;10.808;2024-01-15T05:25:50;-3275.60;75.40
38514;DHT22;24282;48.400;10.808;2024-01-15T05:28:16;-3275.60;75.80
38514;DHT22;24282;48.400;10.808;2024-01-15T05:30:41;-3275.60;75.90
38514;DHT22;24282;48.400;10.808;2024-01-15T05:33:07;-3275.60;75.70
38514;DHT22;24282;48.400;10.808;2024-01-15T05:35:33;-3275.60;75.80
38514;DHT22;24282;48.400;10.808;2024-01-15T05:37:59;-3275.60;75.70
38514;DHT22;24282;48.400;10.808;2024-01-15T05:40:25;-3275.60;75.60
38514;DHT22;24282;48.400;10.808;2024-01-15T05:42:51;-3275.50;75.90
38514;DHT22;24282;48.400;10.808;2024-01-15T05:45:19;-3275.60;75.60
38514;DHT22;24282;48.400;10.808;2024-01-15T05:47:45;-3275.60;75.50
38514;DHT22;24282;48.400;10.808;2024-01-15T05:50:11;-3275.50;75.90
38514;DHT22;24282;48.400;10.808;2024-01-15T05:52:37;-3275.40;76.00
38514;DHT22;24282;48.400;10.808;2024-01-15T05:55:03;-3275.40;76.20
38514;DHT22;24282;48.400;10.808;2024-01-15T05:57:28;-3275.40;76.40
38514;DHT22;24282;48.400;10.808;2024-01-15T05:59:54;-3275.40;76.40
38514;DHT22;24282;48.400;10.808;2024-01-15T06:02:20;-3275.40;76.40
38514;DHT22;24282;48.400;10.808;2024-01-15T06:04:46;-3275.40;76.50
38514;DHT22;24282;48.400;10.808;2024-01-15T06:07:11;-3275.40;76.40
38514;DHT22;24282;48.400;10.808;2024-01-15T06:09:37;-3275.50;76.40
38514;DHT22;24282;48.400;10.808;2024-01-15T06:12:04;-3275.50;76.30
38514;DHT22;24282;48.400;10.808;2024-01-15T06:14:30;-3275.50;76.40
38514;DHT22;24282;48.400;10.808;2024-01-15T06:16:56;-3275.50;76.30
38514;DHT22;24282;48.400;10.808;2024-01-15T06:19:21;-3275.60;76.10
38514;DHT22;24282;48.400;10.808;2024-01-15T06:21:47;-3275.60;75.70
38514;DHT22;24282;48.400;10.808;2024-01-15T06:24:13;-3275.60;75.70
38514;DHT22;24282;48.400;10.808;2024-01-15T06:26:39;-3275.80;75.20
38514;DHT22;24282;48.400;10.808;2024-01-15T06:29:05;-3275.90;74.80
38514;DHT22;24282;48.400;10.808;2024-01-15T06:31:32;-3275.90;74.90
38514;DHT22;24282;48.400;10.808;2024-01-15T06:33:58;-3275.90;74.80
38514;DHT22;24282;48.400;10.808;2024-01-15T06:36:23;-3275.90;74.80
38514;DHT22;24282;48.400;10.808;2024-01-15T06:38:49;-3275.90;74.80
38514;DHT22;24282;48.400;10.808;2024-01-15T06:41:15;-3275.90;75.00
38514;DHT22;24282;48.400;10.808;2024-01-15T06:43:40;-3275.80;75.10
38514;DHT22;24282;48.400;10.808;2024-01-15T06:46:06;-3275.90;74.90
38514;DHT22;24282;48.400;10.808;2024-01-15T06:48:32;-3276.10;74.80
38514;DHT22;24282;48.400;10.808;2024-01-15T06:50:57;-3276.00;74.80
38514;DHT22;24282;48.400;10.808;2024-01-15T06:53:23;-3275.90;75.20
38514;DHT22;24282;48.400;10.808;2024-01-15T06:55:49;-3276.00;75.40
38514;DHT22;24282;48.400;10.808;2024-01-15T06:58:16;-3276.00;75.30
38514;DHT22;24282;48.400;10.808;2024-01-15T07:00:42;-3276.00;75.50
38514;DHT22;24282;48.400;10.808;2024-01-15T07:03:08;-3276.00;75.80
38514;DHT22;24282;48.400;10.808;2024-01-15T07:05:33;-3276.00;76.00
38514;DHT22;24282;48.400;10.808;2024-01-15T07:07:59;-3276.10;76.00
38514;DHT22;24282;48.400;10.808;2024-01-15T07:10:25;-3276.10;75.50
38514;DHT22;24282;48.400;10.808;2024-01-15T07:12:51;-3276.20;75.60
38514;DHT22;24282;48.400;10.808;2024-01-15T07:15:17;-3276.30;75.30
38514;DHT22;24282;48.400;10.808;2024-01-15T07:17:43;-3276.30;75.30
38514;DHT22;24282;48.400;10.808;2024-01-15T07:20:09;-3276.40;75.00
38514;DHT22;24282;48.400;10.808;2024-01-15T07:22:38;-3276.40;75.00
38514;DHT22;24282;48.400;10.808;2024-01-15T07:25:04;-3276.40;74.70
38514;DHT22;24282;48.400;10.808;2024-01-15T07:27:31;-3276.50;74.70
38514;DHT22;24282;48.400;10.808;2024-01-15T07:29:57;-3276.50;74.40
38514;DHT22;24282;48.400;10.808;2024-01-15T07:32:23;-3276.60;74.10
38514;DHT22;24282;48.400;10.808;2024-01-15T07:34:49;-3276.50;74.40
38514;DHT22;24282;48.400;10.808;2024-01-15T07:37:15;-3276.60;74.30
38514;DHT22;24282;48.400;10.808;2024-01-15T07:39:41;-3276.60;74.20
38514;DHT22;24282;48.400;10.808;2024-01-15T07:42:06;-3276.50;74.00
38514;DHT22;24282;48.400;10.808;2024-01-15T07:44:33;-3276.50;74.40
38514;DHT22;24282;48.400;10.808;2024-01-15T07:46:59;-3276.50;74.50
38514;DHT22;24282;48.400;10.808;2024-01-15T07:49:25;-3276.50;73.90
38514;DHT22;24282;48.400;10.808;2024-01-15T07:51:50;-3276.50;73.60
38514;DHT22;24282;48.400;10.808;2024-01-15T07:54:16;-3276.50;73.30
38514;DHT22;24282;48.400;10.808;2024-01-15T07:56:59;-3276.50;73.40
38514;DHT22;24282;48.400;10.808;2024-01-15T07:59:28;-3276.50;73.60
38514;DHT22;24282;48.400;10.808;2024-01-15T08:01:54;-3276.50;73.50
38514;DHT22;24282;48.400;10.808;2024-01-15T08:04:20;-3276.70;72.30
38514;DHT22;24282;48.400;10.808;2024-01-15T08:06:47;-3276.70;72.10
38514;DHT22;24282;48.400;10.808;2024-01-15T08:09:13;-3276.70;72.10
38514;DHT22;24282;48.400;10.808;2024-01-15T08:11:40;0.00;71.60
38514;DHT22;24282;48.400;10.808;2024-01-15T08:14:07;0.00;71.20
38514;DHT22;24282;48.400;10.808;2024-01-15T08:16:33;0.00;71.20
38514;DHT22;24282;48.400;10.808;2024-01-15T08:18:59;0.00;71.20
38514;DHT22;24282;48.400;10.808;2024-01-15T08:21:24;0.00;71.40
38514;DHT22;24282;48.400;10.808;2024-01-15T08:23:50;0.00;71.60
38514;DHT22;24282;48.400;10.808;2024-01-15T08:26:16;0.00;71.90
38514;DHT22;24282;48.400;10.808;2024-01-15T08:28:41;0.10;71.60
38514;DHT22;24282;48.400;10.808;2024-01-15T08:31:07;0.00;71.50
38514;DHT22;24282;48.400;10.808;2024-01-15T08:33:33;0.00;71.90
38514;DHT22;24282;48.400;10.808;2024-01-15T08:35:58;0.10;72.10
38514;DHT22;24282;48.400;10.808;2024-01-15T08:38:24;0.10;71.90
38514;DHT22;24282;48.400;10.808;2024-01-15T08:40:50;0.10;71.70
38514;DHT22;24282;48.400;10.808;2024-01-15T08:43:18;0.10;71.90
38514;DHT22;24282;48.400;10.808;2024-01-15T08:45:44;0.20;71.50
38514;DHT22;24282;48.400;10.808;2024-01-15T08:48:10;0.20;71.40
38514;DHT22;24282;48.400;10.808;2024-01-15T08:50:36;0.10;71.00
38514;DHT22;24282;48.400;10.808;2024-01-15T08:53:02;0.20;71.10
38514;DHT22;24282;48.400;10.808;2024-01-15T08:55:28;0.30;70.70
38514;DHT22;24282;48.400;10.808;2024-01-15T08:57:54;0.20;70.90
38514;DHT22;24282;48.400;10.808;2024-01-15T09:00:19;0.30;69.80
38514;DHT22;24282;48.400;10.808;2024-01-15T09:02:45;0.30;69.80
38514;DHT22;24282;48.400;10.808;2024-01-15T09:05:11;0.40;69.70
38514;DHT22;24282;48.400;10.808;2024-01-15T09:07:37;0.50;69.90
38514;DHT22;24282;48.400;10.808;2024-01-15T09:10:03;0.70;77.70
38514;DHT22;24282;48.400;10.808;2024-01-15T09:12:29;0.90;73.60
38514;DHT22;24282;48.400;10.808;2024-01-15T09:14:55;1.00;68.90
38514;DHT22;24282;48.400;10.808;2024-01-15T09:17:21;1.00;67.10
38514;DHT22;24282;48.400;10.808;2024-01-15T09:19:50;0.90;68.10
38514;DHT22;24282;48.400;10.808;2024-01-15T09:22:15;0.80;67.90
38514;DHT22;24282;48.400;10.808;2024-01-15T09:24:47;0.80;67.70
38514;DHT22;24282;48.400;10.808;2024-01-15T09:27:13;0.80;67.40
38514;DHT22;24282;48.400;10.808;2024-01-15T09:29:39;0.80;66.80
38514;DHT22;24282;48.400;10.808;2024-01-15T09:32:07;0.70;67.80
38514;DHT22;24282;48.400;10.808;2024-01-15T09:34:36;0.70;67.70
38514;DHT22;24282;48.400;10.808;2024-01-15T09:37:02;0.70;67.60
38514;DHT22;24282;48.400;10.808;2024-01-15T09:39:31;0.80;67.30
38514;DHT22;24282;48.400;10.808;2024-01-15T09:41:57;0.90;66.10
38514;DHT22;24282;48.400;10.808;2024-01-15T09:44:23;0.80;65.80
38514;DHT22;24282;48.400;10.808;2024-01-15T09:46:50;0.90;65.40
38514;DHT22;24282;48.400;10.808;2024-01-15T09:49:17;0.90;65.30
38514;DHT22;24282;48.400;10.808;2024-01-15T09:51:44;1.00;63.80
38514;DHT22;24282;48.400;10.808;2024-01-15T09:54:10;0.90;64.30
38514;DHT22;24282;48.400;10.808;2024-01-15T09:56:39;1.00;64.20
38514;DHT22;24282;48.400;10.808;2024-01-15T09:59:05;1.00;64.60
38514;DHT22;24282;48.400;10.808;2024-01-15T10:01:32;1.00;65.20
38514;DHT22;24282;48.400;10.808;2024-01-15T10:03:59;1.10;64.40
38514;DHT22;24282;48.400;10.808;2024-01-15T10:06:27;1.10;64.40
38514;DHT22;24282;48.400;10.808;2024-01-15T10:08:57;1.20;63.90
38514;DHT22;24282;48.400;10.808;2024-01-15T10:11:24;1.40;63.30
38514;DHT22;24282;48.400;10.808;2024-01-15T10:13:49;1.40;63.90
38514;DHT22;24282;48.400;10.808;2024-01-15T10:16:21;1.50;63.20
38514;DHT22;24282;48.400;10.808;2024-01-15T10:18:48;1.60;62.30
38514;DHT22;24282;48.400;10.808;2024-01-15T10:21:14;1.70;62.60
38514;DHT22;24282;48.400;10.808;2024-01-15T10:23:41;1.70;61.90
38514;DHT22;24282;48.400;10.808;2024-01-15T10:26:08;1.90;61.90
38514;DHT22;24282;48.400;10.808;2024-01-15T10:28:33;1.90;62.40
38514;DHT22;24282;48.400;10.808;2024-01-15T10:31:00;1.90;62.20
38514;DHT22;24282;48.400;10.808;2024-01-15T10:33:26;2.00;62.10
38514;DHT22;24282;48.400;10.808;2024-01-15T10:36:00;2.00;60.90
38514;DHT22;24282;48.400;10.808;2024-01-15T10:38:26;2.00;61.30
38514;DHT22;24282;48.400;10.808;2024-01-15T10:40:56;2.00;61.80
38514;DHT22;24282;48.400;10.808;2024-01-15T10:43:23;2.00;62.30
38514;DHT22;24282;48.400;10.808;2024-01-15T10:45:50;2.10;62.10
38514;DHT22;24282;48.400;10.808;2024-01-15T10:48:19;2.10;60.50
38514;DHT22;24282;48.400;10.808;2024-01-15T10:50:46;2.00;60.80
38514;DHT22;24282;48.400;10.808;2024-01-15T10:53:14;2.00;61.10
38514;DHT22;24282;48.400;10.808;2024-01-15T10:55:41;2.00;61.40
38514;DHT22;24282;48.400;10.808;2024-01-15T10:58:08;2.10;59.80
38514;DHT22;24282;48.400;10.808;2024-01-15T11:00:35;2.00;60.20
38514;DHT22;24282;48.400;10.808;2024-01-15T11:03:04;2.00;61.40
38514;DHT22;24282;48.400;10.808;2024-01-15T11:05:43;2.00;61.40
38514;DHT22;24282;48.400;10.808;2024-01-15T11:08:09;2.00;61.40
38514;DHT22;24282;48.400;10.808;2024-01-15T11:10:43;2.00;61.70
38514;DHT22;24282;48.400;10.808;2024-01-15T11:16:03;2.20;61.30
38514;DHT22;24282;48.400;10.808;2024-01-15T11:18:40;2.20;61.20
38514;DHT22;24282;48.400;10.808;2024-01-15T11:23:45;2.10;61.60
38514;DHT22;24282;48.400;10.808;2024-01-15T11:29:00;2.00;61.40
38514;DHT22;24282;48.400;10.808;2024-01-15T11:31:28;2.00;61.70
38514;DHT22;24282;48.400;10.808;2024-01-15T11:33:54;2.00;61.80
38514;DHT22;24282;48.400;10.808;2024-01-15T11:36:21;1.90;62.10
38514;DHT22;24282;48.400;10.808;2024-01-15T11:38:47;2.00;61.70
38514;DHT22;24282;48.400;10.808;2024-01-15T11:41:16;2.10;61.80
38514;DHT22;24282;48.400;10.808;2024-01-15T11:43:42;2.00;62.20
38514;DHT22;24282;48.400;10.808;2024-01-15T11:46:11;2.10;62.40
38514;DHT22;24282;48.400;10.808;2024-01-15T11:48:44;2.00;62.70
38514;DHT22;24282;48.400;10.808;2024-01-15T11:51:11;2.10;62.60
38514;DHT22;24282;48.400;10.808;2024-01-15T11:53:45;2.10;63.00
38514;DHT22;24282;48.400;10.808;2024-01-15T11:56:17;2.10;62.30
38514;DHT22;24282;48.400;10.808;2024-01-15T11:58:43;2.00;63.40
38514;DHT22;24282;48.400;10.808;2024-01-15T12:01:10;2.00;63.00
38514;DHT22;24282;48.400;10.808;2024-01-15T12:03:36;2.00;63.50
38514;DHT22;24282;48.400;10.808;2024-01-15T12:06:05;2.00;63.70
38514;DHT22;24282;48.400;10.808;2024-01-15T12:08:30;2.00;63.60
38514;DHT22;24282;48.400;10.808;2024-01-15T12:10:56;2.00;63.80
38514;DHT22;24282;48.400;10.808;2024-01-15T12:13:22;1.90;64.00
38514;DHT22;24282;48.400;10.808;2024-01-15T12:15:48;1.90;64.20
38514;DHT22;24282;48.400;10.808;2024-01-15T12:18:16;1.90;64.40
38514;DHT22;24282;48.400;10.808;2024-01-15T12:20:42;1.90;65.20
38514;DHT22;24282;48.400;10.808;2024-01-15T12:23:09;2.00;64.80
38514;DHT22;24282;48.400;10.808;2024-01-15T12:25:36;2.00;65.30
38514;DHT22;24282;48.400;10.808;2024-01-15T12:28:03;2.10;64.30
38514;DHT22;24282;48.400;10.808;2024-01-15T12:30:30;2.10;64.60
38514;DHT22;24282;48.400;10.808;2024-01-15T12:33:01;2.10;64.90
38514;DHT22;24282;48.400;10.808;2024-01-15T12:35:28;2.10;65.50
38514;DHT22;24282;48.400;10.808;2024-01-15T12:37:55;2.10;64.80
38514;DHT22;24282;48.400;10.808;2024-01-15T12:40:22;2.10;64.90
38514;DHT22;24282;48.400;10.808;2024-01-15T12:42:48;2.10;65.20
38514;DHT22;24282;48.400;10.808;2024-01-15T12:45:14;2.10;65.10
38514;DHT22;24282;48.400;10.808;2024-01-15T12:47:40;2.20;64.10
38514;DHT22;24282;48.400;10.808;2024-01-15T12:50:08;2.20;63.90
38514;DHT22;24282;48.400;10.808;2024-01-15T12:52:34;2.20;64.20
38514;DHT22;24282;48.400;10.808;2024-01-15T12:55:00;2.00;64.20
38514;DHT22;24282;48.400;10.808;2024-01-15T12:57:25;2.00;65.50
38514;DHT22;24282;48.400;10.808;2024-01-15T12:59:51;2.00;65.10
38514;DHT22;24282;48.400;10.808;2024-01-15T13:02:18;2.00;65.40
38514;DHT22;24282;48.400;10.808;2024-01-15T13:04:44;2.00;65.80
38514;DHT22;24282;48.400;10.808;2024-01-15T13:07:09;1.80;66.40
38514;DHT22;24282;48.400;10.808;2024-01-15T13:09:35;2.00;66.60
38514;DHT22;24282;48.400;10.808;2024-01-15T13:12:04;2.00;67.20
38514;DHT22;24282;48.400;10.808;2024-01-15T13:14:31;2.00;66.80
38514;DHT22;24282;48.400;10.808;2024-01-15T13:16:57;1.90;67.00
38514;DHT22;24282;48.400;10.808;2024-01-15T13:19:24;1.80;68.10
38514;DHT22;24282;48.400;10.808;2024-01-15T13:21:49;1.80;68.60
38514;DHT22;24282;48.400;10.808;2024-01-15T13:24:17;1.70;68.70
38514;DHT22;24282;48.400;10.808;2024-01-15T13:26:43;1.70;68.50
38514;DHT22;24282;48.400;10.808;2024-01-15T13:29:09;1.80;68.10
38514;DHT22;24282;48.400;10.808;2024-01-15T13:31:35;1.80;67.80
38514;DHT22;24282;48.400;10.808;2024-01-15T13:34:01;1.70;68.40
38514;DHT22;24282;48.400;10.808;2024-01-15T13:36:29;1.80;68.70
38514;DHT22;24282;48.400;10.808;2024-01-15T13:38:55;1.80;68.90
38514;DHT22;24282;48.400;10.808;2024-01-15T13:41:21;1.90;68.50
38514;DHT22;24282;48.400;10.808;2024-01-15T13:43:54;1.90;68.90
38514;DHT22;24282;48.400;10.808;2024-01-15T13:46:23;1.80;69.20
38514;DHT22;24282;48.400;10.808;2024-01-15T13:48:49;1.80;69.40
38514;DHT22;24282;48.400;10.808;2024-01-15T13:51:15;1.80;69.60
38514;DHT22;24282;48.400;10.808;2024-01-15T13:53:41;1.80;70.20
38514;DHT22;24282;48.400;10.808;2024-01-15T13:56:07;1.80;70.40
38514;DHT22;24282;48.400;10.808;2024-01-15T13:58:35;1.80;70.70
38514;DHT22;24282;48.400;10.808;2024-01-15T14:01:01;1.90;70.70
38514;DHT22;24282;48.400;10.808;2024-01-15T14:03:29;1.90;71.00
38514;DHT22;24282;48.400;10.808;2024-01-15T14:05:55;1.80;71.50
38514;DHT22;24282;48.400;10.808;2024-01-15T14:08:23;1.80;72.00
38514;DHT22;24282;48.400;10.808;2024-01-15T14:10:49;1.80;72.40
38514;DHT22;24282;48.400;10.808;2024-01-15T14:13:15;1.70;73.10
38514;DHT22;24282;48.400;10.808;2024-01-15T14:15:41;1.80;73.30
38514;DHT22;24282;48.400;10.808;2024-01-15T14:18:09;1.70;73.20
38514;DHT22;24282;48.400;10.808;2024-01-15T14:20:35;1.70;73.80
38514;DHT22;24282;48.400;10.808;2024-01-15T14:23:01;1.60;74.50
38514;DHT22;24282;48.400;10.808;2024-01-15T14:25:27;1.70;75.10
38514;DHT22;24282;48.400;10.808;2024-01-15T14:27:53;1.50;75.30
38514;DHT22;24282;48.400;10.808;2024-01-15T14:30:18;1.50;75.60
38514;DHT22;24282;48.400;10.808;2024-01-15T14:32:44;1.60;75.10
38514;DHT22;24282;48.400;10.808;2024-01-15T14:35:10;1.60;75.60
38514;DHT22;24282;48.400;10.808;2024-01-15T14:37:39;1.50;76.00
38514;DHT22;24282;48.400;10.808;2024-01-15T14:40:07;1.50;77.00
38514;DHT22;24282;48.400;10.808;2024-01-15T14:42:36;1.40;77.40
38514;DHT22;24282;48.400;10.808;2024-01-15T14:45:06;1.40;78.80
38514;DHT22;24282;48.400;10.808;2024-01-15T14:47:38;1.40;79.90
38514;DHT22;24282;48.400;10.808;2024-01-15T14:50:08;1.30;80.20
38514;DHT22;24282;48.400;10.808;2024-01-15T14:52:35;1.20;80.50
38514;DHT22;24282;48.400;10.808;2024-01-15T14:55:02;1.20;80.60
38514;DHT22;24282;48.400;10.808;2024-01-15T14:57:28;1.20;80.70
38514;DHT22;24282;48.400;10.808;2024-01-15T14:59:53;1.20;81.00
38514;DHT22;24282;48.400;10.808;2024-01-15T15:02:19;1.20;81.40
38514;DHT22;24282;48.400;10.808;2024-01-15T15:04:46;1.10;81.30
38514;DHT22;24282;48.400;10.808;2024-01-15T15:07:12;1.10;81.90